Time;durP1;ratioP1;P1;durP2;ratioP2;P2;SDS_P1;SDS_P2;PMS_P1;PMS_P2;Temp;Humidity;BMP_temperature;BMP_pressure;BME280_temperature;BME280_humidity;BME280_pressure;Samples;Min_cycle;Max_cycle;Signal;HPM_P1;HPM_P2
2022/06/20 00:00:08;;;;;;;8.60;2.23;;;;;;;11.36;100.00;100567.69;7393270;19;21008;-60
2022/06/20 00:06:15;;;;;;;11.43;2.83;;;;;;;11.32;100.00;100600.28;7387435;19;20388;-60
2022/06/20 00:09:28;;;;;;;11.47;2.93;;;;;;;11.29;100.00;100599.28;7396561;19;20380;-60
2022/06/20 00:16:00;;;;;;;9.23;2.50;;;;;;;11.32;100.00;100563.22;7394928;19;20394;-60
2022/06/20 00:23:21;;;;;;;6.80;1.93;;;;;;;11.24;100.00;100554.31;7367946;19;20974;-60
2022/06/20 00:26:07;;;;;;;8.30;2.60;;;;;;;11.09;100.00;100591.69;7384680;19;20391;-60
2022/06/20 00:29:03;;;;;;;8.50;2.50;;;;;;;11.05;100.00;100610.47;7392141;19;20400;-60
2022/06/20 00:31:53;;;;;;;6.90;2.30;;;;;;;11.00;100.00;100637.78;7367180;19;20539;-60
2022/06/20 00:35:27;;;;;;;10.23;2.30;;;;;;;10.97;100.00;100658.34;7395913;19;20367;-60
2022/06/20 00:38:53;;;;;;;12.30;2.93;;;;;;;10.96;100.00;100631.63;7388019;19;20432;-60
2022/06/20 00:42:42;;;;;;;;;;;;;;;;;;;;;
2022/06/20 01:03:44;;;;;;;8.63;3.20;;;;;;;11.00;100.00;100596.50;7379370;19;20435;-60
2022/06/20 01:06:53;;;;;;;6.77;2.50;;;;;;;10.97;100.00;100605.00;7359868;19;20777;-60
2022/06/20 01:10:30;;;;;;;12.20;3.00;;;;;;;10.95;100.00;100588.59;7388837;19;20482;-60
2022/06/20 01:16:49;;;;;;;7.23;3.50;;;;;;;10.93;100.00;100585.94;7355668;19;20394;-60
2022/06/20 01:19:34;;;;;;;5.70;3.10;;;;;;;11.01;100.00;100582.75;7386196;19;20389;-60
2022/06/20 01:22:09;;;;;;;7.70;3.23;;;;;;;10.97;100.00;100604.13;7385269;19;20431;-60
2022/06/20 01:24:45;;;;;;;9.57;3.13;;;;;;;10.94;100.00;100590.28;7392992;19;20988;-59
2022/06/20 01:27:23;;;;;;;9.63;3.20;;;;;;;10.89;100.00;100578.94;7385853;19;20446;-60
2022/06/20 01:29:53;;;;;;;11.30;4.13;;;;;;;10.90;100.00;100601.31;7391256;19;20417;-60
2022/06/20 01:32:23;;;;;;;8.60;3.27;;;;;;;10.89;100.00;100602.16;7383086;19;20418;-59
2022/06/20 01:34:53;;;;;;;11.73;3.87;;;;;;;10.92;100.00;100589.34;7392433;19;20476;-60
2022/06/20 01:37:25;;;;;;;9.20;3.60;;;;;;;10.90;100.00;100590.09;7383991;19;20418;-60
2022/06/20 01:39:57;;;;;;;8.87;3.63;;;;;;;10.89;100.00;100584.09;7391126;19;20423;-59
2022/06/20 01:42:28;;;;;;;18.37;3.90;;;;;;;10.85;100.00;100591.63;7385597;19;20945;-59
2022/06/20 01:45:00;;;;;;;11.80;4.17;;;;;;;10.85;100.00;100587.34;7392094;19;20388;-59
2022/06/20 01:47:31;;;;;;;10.30;3.53;;;;;;;10.89;100.00;100591.81;7388114;19;20944;-59
2022/06/20 01:50:05;;;;;;;10.17;3.27;;;;;;;10.84;100.00;100584.72;7393330;19;20413;-60
2022/06/20 01:52:38;;;;;;;10.43;3.33;;;;;;;10.81;100.00;100575.16;7388999;19;20423;-59
2022/06/20 01:55:11;;;;;;;11.33;3.27;;;;;;;10.77;100.00;100562.97;7395344;19;20457;-60
2022/06/20 01:57:46;;;;;;;5.87;3.20;;;;;;;10.73;100.00;100569.72;7385955;19;20424;-60
2022/06/20 02:00:19;;;;;;;6.70;3.67;;;;;;;10.71;100.00;100573.91;7393832;19;21015;-59
2022/06/20 02:02:51;;;;;;;8.30;3.43;;;;;;;10.66;100.00;100593.50;7388871;19;20500;-59
2022/06/20 02:05:24;;;;;;;7.70;3.53;;;;;;;10.65;100.00;100584.91;7395012;19;20386;-59
2022/06/20 02:07:54;;;;;;;9.33;3.50;;;;;;;10.81;100.00;100585.47;7384435;19;20417;-59
2022/06/20 02:10:27;;;;;;;13.97;3.93;;;;;;;11.06;100.00;100586.41;7394587;19;20437;-59
2022/06/20 02:13:00;;;;;;;10.77;5.20;;;;;;;10.96;100.00;100584.31;7389044;19;20417;-59
2022/06/20 02:15:31;;;;;;;16.60;4.80;;;;;;;10.80;100.00;100578.56;7394718;19;20401;-59
2022/06/20 02:18:04;;;;;;;13.30;5.53;;;;;;;11.04;100.00;100577.72;7385790;19;21031;-60
2022/06/20 02:20:45;;;;;;;14.80;8.83;;;;;;;11.02;100.00;100590.56;7392782;19;20955;-60
2022/06/20 02:23:16;;;;;;;12.80;3.93;;;;;;;11.11;100.00;100587.44;7395540;19;20513;-59
2022/06/20 02:25:46;;;;;;;12.10;3.60;;;;;;;11.01;100.00;100582.75;7394335;19;20388;-59
2022/06/20 02:28:23;;;;;;;14.20;4.20;;;;;;;10.81;100.00;100575.16;7393361;19;20424;-59
2022/06/20 02:30:53;;;;;;;6.70;3.37;;;;;;;11.06;100.00;100581.22;7387179;19;20434;-60
2022/06/20 02:33:25;;;;;;;10.60;3.53;;;;;;;11.02;100.00;100579.38;7393719;19;20403;-59
2022/06/20 02:35:55;;;;;;;9.30;3.53;;;;;;;10.88;100.00;100592.63;7378309;19;20383;-60
2022/06/20 02:38:25;;;;;;;11.10;3.50;;;;;;;10.81;100.00;100588.06;7393339;19;20388;-60
2022/06/20 02:40:55;;;;;;;11.80;4.00;;;;;;;10.69;100.00;100596.22;7385527;19;20411;-60
2022/06/20 02:43:32;;;;;;;16.83;3.93;;;;;;;10.80;100.00;100591.47;7393142;19;20720;-59
2022/06/20 02:46:02;;;;;;;9.97;3.37;;;;;;;10.78;100.00;100593.13;7387336;19;20392;-60
2022/06/20 02:48:33;;;;;;;6.87;3.17;;;;;;;10.71;100.00;100593.69;7393437;19;20396;-60
2022/06/20 02:51:06;;;;;;;8.60;2.93;;;;;;;10.53;100.00;100585.28;7383243;19;20422;-60
2022/06/20 02:53:39;;;;;;;7.97;3.37;;;;;;;10.58;100.00;100577.75;7393723;19;20461;-60
2022/06/20 02:56:10;;;;;;;11.33;2.87;;;;;;;10.70;100.00;100590.22;7384699;19;20405;-60
2022/06/20 02:58:46;;;;;;;9.07;3.53;;;;;;;10.73;100.00;100574.88;7394149;19;20400;-60
2022/06/20 03:01:21;;;;;;;13.93;4.60;;;;;;;10.53;100.00;100563.78;7383049;19;20408;-60
2022/06/20 03:03:52;;;;;;;12.63;3.97;;;;;;;10.53;100.00;100566.38;7393411;19;20391;-60
2022/06/20 03:06:27;;;;;;;9.90;3.57;;;;;;;10.32;100.00;100585.31;7384417;19;20970;-60
2022/06/20 03:08:58;;;;;;;12.87;3.03;;;;;;;10.00;100.00;100600.31;7392839;19;20403;-60
2022/06/20 03:11:30;;;;;;;10.33;4.43;;;;;;;9.86;100.00;100600.63;7380588;19;20403;-60
2022/06/20 03:14:05;;;;;;;15.10;8.20;;;;;;;9.98;100.00;100591.66;7392881;19;20384;-60
2022/06/20 03:16:35;;;;;;;11.40;4.00;;;;;;;10.26;100.00;100592.78;7381690;19;20496;-60
2022/06/20 03:19:05;;;;;;;18.73;4.70;;;;;;;10.52;100.00;100599.00;7392363;19;20376;-60
2022/06/20 03:21:39;;;;;;;8.57;3.40;;;;;;;10.56;100.00;100581.94;7385550;19;20434;-60
2022/06/20 03:24:09;;;;;;;11.17;3.23;;;;;;;10.30;100.00;100570.59;7392261;19;20809;-60
2022/06/20 03:26:39;;;;;;;10.67;3.80;;;;;;;10.32;100.00;100569.84;7389541;19;20419;-60
2022/06/20 03:29:12;;;;;;;11.00;3.27;;;;;;;10.25;100.00;100568.69;7392256;19;20456;-60
2022/06/20 03:31:42;;;;;;;10.63;4.47;;;;;;;10.07;100.00;100584.31;7386073;19;21038;-60
2022/06/20 03:34:12;;;;;;;9.60;3.30;;;;;;;10.00;100.00;100583.16;7399591;19;20481;-60
2022/06/20 03:36:43;;;;;;;8.03;3.53;;;;;;;10.02;100.00;100583.25;7390121;19;20496;-60
2022/06/20 03:39:13;;;;;;;7.17;3.37;;;;;;;10.00;100.00;100593.47;7399052;19;20986;-60
2022/06/20 03:41:43;;;;;;;10.00;3.60;;;;;;;10.05;100.00;100580.78;7387648;19;20415;-60
2022/06/20 03:44:18;;;;;;;7.00;3.43;;;;;;;10.02;100.00;100570.34;7399068;19;20471;-60
2022/06/20 03:46:53;;;;;;;7.57;3.97;;;;;;;9.96;100.00;100570.09;7391827;19;20444;-60
2022/06/20 03:49:27;;;;;;;9.07;3.83;;;;;;;9.87;100.00;100575.75;7398562;19;20413;-60
2022/06/20 03:52:00;;;;;;;9.50;3.97;;;;;;;9.82;100.00;100578.13;7392095;19;20496;-60
2022/06/20 03:54:35;;;;;;;20.87;6.00;;;;;;;9.80;100.00;100586.63;7399225;19;20392;-60
2022/06/20 03:57:08;;;;;;;9.20;3.77;;;;;;;9.75;100.00;100581.28;7390349;19;20831;-60
2022/06/20 03:59:44;;;;;;;14.37;4.40;;;;;;;9.83;100.00;100564.44;7398163;19;20396;-59
2022/06/20 04:02:19;;;;;;;12.17;5.57;;;;;;;9.84;100.00;100571.34;7383964;19;20423;-60
2022/06/20 04:04:51;;;;;;;14.60;4.83;;;;;;;9.85;100.00;100564.50;7399146;19;20391;-60
2022/06/20 04:07:23;;;;;;;7.63;3.70;;;;;;;9.87;100.00;100555.13;7380473;19;20602;-60
2022/06/20 04:12:43;;;;;;;12.90;4.63;;;;;;;9.96;100.00;100528.88;7386266;19;20449;-60
2022/06/20 04:15:20;;;;;;;10.30;4.40;;;;;;;10.06;100.00;100519.78;7398395;19;20395;-60
2022/06/20 04:20:42;;;;;;;9.60;4.33;;;;;;;10.19;100.00;100511.72;7396294;19;20432;-59
2022/06/20 04:23:19;;;;;;;10.40;3.87;;;;;;;10.22;100.00;100509.28;7390625;19;20984;-60
2022/06/20 04:26:22;;;;;;;11.20;4.13;;;;;;;10.27;100.00;100524.94;7398123;19;20396;-60
2022/06/20 04:29:17;;;;;;;11.10;3.57;;;;;;;10.25;100.00;100514.56;7376344;19;20447;-60
2022/06/20 04:31:55;;;;;;;11.30;3.70;;;;;;;10.27;100.00;100520.63;7368384;19;20397;-60
2022/06/20 04:34:39;;;;;;;13.73;4.27;;;;;;;10.31;100.00;100518.19;7397250;19;20392;-59
2022/06/20 04:48:35;;;;;;;7.50;3.77;;;;;;;10.62;100.00;100517.69;7392665;19;20945;-60
2022/06/20 04:51:46;;;;;;;17.13;5.07;;;;;;;10.73;100.00;100520.69;7369297;19;20404;-59
2022/06/20 04:54:30;;;;;;;14.13;4.60;;;;;;;10.84;100.00;100527.94;7391031;19;20989;-59
2022/06/20 05:04:49;;;;;;;7.33;2.93;;;;;;;11.16;100.00;100531.69;7397723;19;20392;-59
2022/06/20 05:07:59;;;;;;;12.57;3.30;;;;;;;11.32;100.00;100524.47;7383669;19;20785;-59
2022/06/20 05:15:35;;;;;;;;;;;;;;;;;;;;;
2022/06/20 05:19:05;;;;;;;;;;;;;;;;;;;;;
2022/06/20 05:22:41;;;;;;;10.43;2.90;;;;;;;11.60;100.00;100502.19;7369025;19;20500;-59
2022/06/20 05:29:22;;;;;;;15.20;3.20;;;;;;;11.79;100.00;100482.97;7370017;19;20923;-59
2022/06/20 05:32:40;;;;;;;37.77;10.27;;;;;;;11.89;100.00;100487.63;7390024;19;20425;-60
2022/06/20 05:39:35;;;;;;;8.43;2.23;;;;;;;12.14;100.00;100460.00;7367497;19;20496;-60
2022/06/20 05:46:44;;;;;;;10.07;3.17;;;;;;;12.33;100.00;100413.97;7366554;19;20925;-59
2022/06/20 05:49:45;;;;;;;12.92;2.55;;;;;;;12.44;100.00;100401.34;7370600;19;3001526;-65
2022/06/20 05:53:00;;;;;;;12.77;2.03;;;;;;;12.56;100.00;100387.88;7388893;19;20250;-59
2022/06/20 05:56:41;;;;;;;7.43;1.87;;;;;;;12.73;100.00;100371.94;7393061;19;20408;-60
2022/06/20 06:06:23;;;;;;;11.60;2.27;;;;;;;13.06;100.00;100327.03;7383755;19;20404;-60
2022/06/20 06:12:25;;;;;;;10.83;2.40;;;;;;;13.24;100.00;100316.25;7385725;19;20952;-59
2022/06/20 06:15:23;;;;;;;7.63;2.10;;;;;;;13.29;100.00;100312.06;7390359;19;20422;-59
2022/06/20 06:18:36;;;;;;;8.67;2.40;;;;;;;13.28;100.00;100305.09;7358478;19;20409;-59
2022/06/20 06:21:30;;;;;;;8.67;2.73;;;;;;;13.17;100.00;100309.19;7372698;19;20402;-60
2022/06/20 06:27:30;;;;;;;11.73;2.53;;;;;;;13.12;100.00;100328.91;7369065;19;20421;-60
2022/06/20 06:30:21;;;;;;;9.10;3.27;;;;;;;13.06;100.00;100334.78;7392676;19;20418;-59
2022/06/20 06:33:30;;;;;;;9.77;3.50;;;;;;;13.12;100.00;100340.13;7383661;19;20439;-59
2022/06/20 06:36:43;;;;;;;13.67;2.83;;;;;;;13.04;100.00;100337.38;7370121;19;20387;-60
2022/06/20 06:48:23;;;;;;;8.70;3.83;;;;;;;12.85;100.00;100384.31;7368105;19;20447;-62
2022/06/20 06:55:15;;;;;;;7.03;2.73;;;;;;;12.79;100.00;100377.28;7395578;19;20384;-62
2022/06/20 06:58:54;;;;;;;;;;;;;;;;;;;;;
2022/06/20 07:05:12;;;;;;;10.77;4.90;;;;;;;12.92;100.00;100360.38;7394898;19;20393;-62
2022/06/20 07:07:46;;;;;;;4.90;2.00;;;;;;;13.07;100.00;100368.50;7368697;19;20412;-60
2022/06/20 07:10:33;;;;;;;60.03;29.13;;;;;;;13.17;100.00;100359.25;7398630;19;20408;-61
2022/06/20 07:17:34;;;;;;;;;;;;;;;;;;;;;
2022/06/20 07:20:27;;;;;;;26.47;11.67;;;;;;;13.39;100.00;100330.41;7398218;19;20401;-62
2022/06/20 07:23:09;;;;;;;8.33;1.87;;;;;;;13.32;100.00;100331.97;7392577;19;20980;-62
2022/06/20 07:26:10;;;;;;;12.43;4.37;;;;;;;13.48;100.00;100320.25;7399794;19;20966;-62
2022/06/20 07:29:10;;;;;;;5.57;1.87;;;;;;;13.66;100.00;100311.16;7376239;19;20428;-62
2022/06/20 07:32:30;;;;;;;11.40;4.60;;;;;;;13.89;100.00;100304.75;7375472;19;20391;-62
2022/06/20 07:39:01;;;;;;;5.63;1.83;;;;;;;13.83;100.00;100321.88;7375931;19;20406;-62
2022/06/20 07:42:02;;;;;;;18.70;8.43;;;;;;;13.97;100.00;100322.19;7373601;19;20752;-62
2022/06/20 07:45:14;;;;;;;12.30;4.50;;;;;;;14.04;100.00;100322.34;7395814;19;20965;-62
2022/06/20 07:48:42;;;;;;;30.60;13.83;;;;;;;14.18;100.00;100290.63;7391639;19;20403;-63
2022/06/20 07:52:14;;;;;;;12.03;5.20;;;;;;;14.49;100.00;100274.75;7391391;19;20429;-62
2022/06/20 07:55:35;;;;;;;25.43;10.50;;;;;;;14.33;100.00;100274.47;7397126;19;20421;-62
2022/06/20 07:59:02;;;;;;;16.70;6.80;;;;;;;14.57;100.00;100283.56;7391518;19;20392;-62
2022/06/20 08:01:44;;;;;;;8.60;3.20;;;;;;;14.58;100.00;100255.00;7389161;19;20427;-62
2022/06/20 08:04:18;;;;;;;25.37;11.90;;;;;;;14.66;100.00;100205.81;7395953;19;20401;-62
2022/06/20 08:07:23;;;;;;;9.23;1.70;;;;;;;14.73;100.00;100191.22;7353669;19;20419;-62
2022/06/20 08:10:03;;;;;;;16.13;6.70;;;;;;;14.77;100.00;100158.44;7393337;19;20419;-62
2022/06/20 08:13:03;;;;;;;5.47;2.00;;;;;;;14.27;100.00;100165.41;7384433;19;20454;-62
2022/06/20 08:16:28;;;;;;;7.17;1.67;;;;;;;14.00;100.00;100166.66;7393026;19;20389;-62
2022/06/20 08:22:20;;;;;;;13.33;5.20;;;;;;;13.75;100.00;100197.31;7391215;19;20444;-62
2022/06/20 08:25:26;;;;;;;5.13;2.30;;;;;;;13.79;100.00;100224.16;7399098;19;20372;-62
2022/06/20 08:31:19;;;;;;;7.03;2.27;;;;;;;13.99;100.00;100253.06;7373322;19;20949;-62
2022/06/20 08:34:14;;;;;;;9.03;2.27;;;;;;;14.13;100.00;100225.69;7395777;19;20386;-62
2022/06/20 08:37:07;;;;;;;12.40;4.00;;;;;;;14.07;100.00;100207.41;7368170;19;20780;-62
2022/06/20 08:40:31;;;;;;;7.33;2.40;;;;;;;14.24;100.00;100188.66;7395220;19;20407;-62
2022/06/20 08:47:28;;;;;;;6.67;2.80;;;;;;;14.48;100.00;100153.63;7386620;19;20803;-62
2022/06/20 08:50:56;;;;;;;;;;;;;;;;;;;;;
2022/06/20 08:54:31;;;;;;;9.73;3.30;;;;;;;14.71;100.00;100126.28;7392885;19;20950;-62
2022/06/20 09:01:06;;;;;;;6.43;2.50;;;;;;;15.07;100.00;100090.44;7391900;19;20431;-62
2022/06/20 09:04:17;;;;;;;32.27;13.50;;;;;;;14.97;100.00;100076.47;7374378;19;20393;-62
2022/06/20 09:07:27;;;;;;;5.57;2.70;;;;;;;14.67;100.00;100051.78;7360277;19;20404;-62
2022/06/20 09:10:45;;;;;;;21.73;9.43;;;;;;;14.30;100.00;100028.81;7394638;19;20428;-62
2022/06/20 09:20:50;;;;;;;11.10;4.10;;;;;;;14.92;100.00;99974.25;7392918;19;20849;-62
2022/06/20 09:24:06;;;;;;;5.70;2.70;;;;;;;15.01;100.00;99962.22;7391112;19;20416;-62
2022/06/20 09:30:13;;;;;;;15.13;3.93;;;;;;;15.61;100.00;99903.00;7383440;19;20442;-62
2022/06/20 09:33:14;;;;;;;10.53;3.83;;;;;;;15.92;100.00;99879.84;7389454;19;20417;-62
2022/06/20 09:35:57;;;;;;;5.27;2.10;;;;;;;15.94;100.00;99879.81;7398457;19;20403;-60
2022/06/20 09:38:36;;;;;;;67.50;28.50;;;;;;;15.72;100.00;99858.88;7394594;19;20417;-62
2022/06/20 09:41:10;;;;;;;9.17;3.17;;;;;;;15.64;100.00;99863.16;7380685;19;20433;-63
2022/06/20 09:43:47;;;;;;;22.67;10.33;;;;;;;15.80;100.00;99859.78;7398493;19;20403;-61
2022/06/20 09:46:23;;;;;;;5.37;2.40;;;;;;;16.19;100.00;99864.34;7385764;19;20411;-60
2022/06/20 09:49:00;;;;;;;16.33;5.03;;;;;;;16.35;100.00;99846.19;7394144;19;20378;-60
2022/06/20 09:51:42;;;;;;;26.80;8.77;;;;;;;16.10;100.00;99835.69;7386304;19;20395;-61
2022/06/20 09:54:17;;;;;;;18.83;8.70;;;;;;;15.89;100.00;99824.31;7394620;19;20386;-63
2022/06/20 09:56:52;;;;;;;15.33;6.80;;;;;;;15.57;100.00;99828.44;7383500;19;20427;-61
2022/06/20 09:59:29;;;;;;;8.97;2.60;;;;;;;15.95;100.00;99839.09;7394145;19;20742;-61
2022/06/20 10:02:08;;;;;;;5.97;2.37;;;;;;;16.51;100.00;99840.16;7385007;19;20418;-61
2022/06/20 10:04:46;;;;;;;8.30;2.40;;;;;;;16.67;100.00;99819.38;7395039;19;20913;-60
2022/06/20 10:07:39;;;;;;;9.23;4.37;;;;;;;16.30;100.00;99809.72;7383755;19;20428;-60
2022/06/20 10:10:12;;;;;;;9.13;3.70;;;;;;;16.07;100.00;99810.53;7393137;19;20421;-63
2022/06/20 10:12:47;;;;;;;10.17;4.37;;;;;;;16.21;100.00;99800.19;7383234;19;20422;-62
2022/06/20 10:15:25;;;;;;;8.43;2.40;;;;;;;16.57;100.00;99738.63;7388488;19;20383;-61
2022/06/20 10:18:03;;;;;;;5.50;2.57;;;;;;;16.62;100.00;99774.22;7384259;19;20524;-61
2022/06/20 10:20:42;;;;;;;18.40;7.40;;;;;;;16.36;100.00;99861.78;7393383;19;20967;-61
2022/06/20 10:23:38;;;;;;;9.47;2.77;;;;;;;16.18;100.00;99868.69;7386000;19;20426;-62
2022/06/20 10:26:23;;;;;;;5.40;2.57;;;;;;;16.01;100.00;99860.78;7380780;19;20416;-61
2022/06/20 10:28:57;;;;;;;10.43;4.20;;;;;;;16.09;100.00;99857.38;7393191;19;20389;-61
2022/06/20 10:31:36;;;;;;;5.53;2.50;;;;;;;15.82;100.00;99849.41;7380768;19;20417;-61
2022/06/20 10:34:11;;;;;;;57.07;25.63;;;;;;;16.30;100.00;99860.06;7395652;19;20402;-60
2022/06/20 10:36:53;;;;;;;5.93;3.00;;;;;;;16.82;100.00;99863.66;7382860;19;21055;-61
2022/06/20 10:39:40;;;;;;;8.63;3.37;;;;;;;17.16;100.00;99880.25;7391648;19;20384;-61
2022/06/20 10:42:22;;;;;;;35.10;16.20;;;;;;;17.35;100.00;99918.50;7375166;19;20753;-61
2022/06/20 10:45:08;;;;;;;10.40;2.90;;;;;;;17.01;100.00;99960.97;7393282;19;20389;-61
2022/06/20 10:47:43;;;;;;;11.97;4.40;;;;;;;16.90;100.00;99954.88;7382080;19;20787;-63
2022/06/20 10:50:24;;;;;;;10.20;4.40;;;;;;;17.05;100.00;99930.63;7395512;19;20429;-62
2022/06/20 10:53:09;;;;;;;8.17;4.10;;;;;;;17.32;100.00;99905.44;7378686;19;20449;-61
2022/06/20 10:55:47;;;;;;;13.93;4.60;;;;;;;17.20;100.00;99975.81;7395323;19;20459;-61
2022/06/20 10:58:44;;;;;;;13.17;2.73;;;;;;;16.69;100.00;99973.88;7378935;19;20430;-61
2022/06/20 11:01:18;;;;;;;9.63;3.20;;;;;;;16.33;100.00;99971.13;7371320;19;25531;-61
2022/06/20 11:04:02;;;;;;;11.90;4.37;;;;;;;16.54;100.00;99957.34;7395945;19;20400;-61
2022/06/20 11:06:44;;;;;;;6.60;1.93;;;;;;;16.41;100.00;99916.50;7386409;19;20450;-61
2022/06/20 11:09:23;;;;;;;8.20;2.73;;;;;;;16.38;100.00;99906.06;7395984;19;20394;-61
2022/06/20 11:12:04;;;;;;;14.97;2.63;;;;;;;16.19;100.00;99918.97;7377395;19;20446;-61
2022/06/20 11:14:47;;;;;;;6.67;2.43;;;;;;;16.12;100.00;99951.03;7396013;19;20387;-61
2022/06/20 11:17:35;;;;;;;9.63;2.10;;;;;;;16.54;100.00;99975.56;7389047;19;20539;-60
2022/06/20 11:20:56;;;;;;;5.30;2.47;;;;;;;16.78;100.00;99954.81;7394238;19;20416;-61
2022/06/20 11:23:41;;;;;;;5.70;2.17;;;;;;;17.00;100.00;99968.78;7372122;19;20450;-61
2022/06/20 11:26:52;;;;;;;9.00;2.93;;;;;;;17.10;100.00;99970.59;7377760;19;20380;-62
2022/06/20 11:30:14;;;;;;;8.97;2.30;;;;;;;17.21;100.00;99982.75;7395457;19;20412;-61
2022/06/20 11:37:26;;;;;;;6.90;2.47;;;;;;;16.45;100.00;99926.94;7367302;19;20432;-61
2022/06/20 11:40:46;;;;;;;5.77;2.17;;;;;;;16.13;100.00;99921.56;7392464;19;20762;-61
2022/06/20 11:44:18;;;;;;;8.00;1.83;;;;;;;15.77;100.00;99969.00;7371553;19;20460;-61
2022/06/20 11:51:46;;;;;;;6.23;1.60;;;;;;;17.06;100.00;100060.03;7367275;19;20434;-62
2022/06/20 12:06:22;;;;;;;4.95;1.77;;;;;;;16.57;100.00;99949.53;7112693;19;6115847;-58
2022/06/20 12:09:03;;;;;;;6.80;2.30;;;;;;;16.16;100.00;99854.78;7424856;19;20184;-58
2022/06/20 12:12:05;;;;;;;6.93;2.73;;;;;;;16.66;100.00;99818.50;7406471;19;20404;-58
2022/06/20 12:14:56;;;;;;;5.43;2.13;;;;;;;16.90;100.00;99826.34;7429232;19;20369;-58
2022/06/20 12:17:51;;;;;;;28.10;12.87;;;;;;;16.93;100.00;99841.97;7399848;19;20454;-59
2022/06/20 12:23:37;;;;;;;3.37;1.70;;;;;;;17.26;100.00;99887.19;7424733;19;20532;-59
2022/06/20 12:26:43;;;;;;;5.43;2.53;;;;;;;17.19;100.00;100011.44;7412879;19;20402;-60
2022/06/20 12:29:55;;;;;;;3.27;1.27;;;;;;;16.88;100.00;100025.19;7428644;19;20362;-60
2022/06/20 12:33:25;;;;;;;3.93;1.30;;;;;;;17.27;100.00;100008.84;7424748;19;20430;-59
2022/06/20 12:36:47;;;;;;;2.97;1.20;;;;;;;17.22;100.00;100057.50;7410803;19;20414;-60
2022/06/20 12:39:31;;;;;;;14.90;6.83;;;;;;;16.77;100.00;100070.28;7428643;19;20832;-59
2022/06/20 12:42:32;;;;;;;13.27;5.63;;;;;;;16.59;100.00;100036.34;7410040;19;20442;-60
2022/06/20 12:45:44;;;;;;;8.50;2.93;;;;;;;16.87;100.00;99989.59;7426683;19;20477;-59
2022/06/20 12:49:04;;;;;;;3.83;1.30;;;;;;;17.36;100.00;99998.44;7416977;19;20750;-59
2022/06/20 12:55:54;;;;;;;4.30;1.60;;;;;;;17.65;100.00;100107.13;7421774;19;20452;-60
2022/06/20 12:59:13;;;;;;;9.03;3.50;;;;;;;17.54;100.00;100320.97;7402830;19;20403;-60
2022/06/20 13:02:08;;;;;;;7.83;2.50;;;;;;;18.13;100.00;100363.91;7418259;19;20453;-60
2022/06/20 13:05:23;;;;;;;12.50;4.53;;;;;;;18.79;100.00;100396.31;7422550;19;20405;-60
2022/06/20 13:08:43;;;;;;;8.43;3.40;;;;;;;19.25;100.00;100477.47;7416364;19;20421;-60
2022/06/20 13:11:41;;;;;;;9.70;4.77;;;;;;;18.18;100.00;100438.78;7399247;19;20395;-60
2022/06/20 13:18:12;;;;;;;4.97;1.77;;;;;;;17.73;100.00;100341.09;7376174;19;20478;-59
2022/06/20 13:20:47;;;;;;;12.30;5.40;;;;;;;18.25;100.00;100454.47;7396484;19;20414;-60
2022/06/20 13:23:34;;;;;;;5.00;2.10;;;;;;;18.23;100.00;100483.19;7386570;19;20421;-60
2022/06/20 13:26:12;;;;;;;11.17;2.50;;;;;;;18.83;100.00;100495.66;7382143;19;20764;-60
2022/06/20 13:28:50;;;;;;;20.13;7.57;;;;;;;18.91;100.00;100477.34;7398691;19;20393;-61
2022/06/20 13:31:23;;;;;;;17.57;7.80;;;;;;;18.10;100.00;100400.44;7388183;19;20399;-61
2022/06/20 13:34:01;;;;;;;6.30;2.33;;;;;;;18.02;100.00;100336.00;7399406;19;20384;-60
2022/06/20 13:36:36;;;;;;;11.80;4.90;;;;;;;17.77;100.00;100243.69;7390087;19;20425;-60
2022/06/20 13:39:14;;;;;;;13.70;3.70;;;;;;;17.56;100.00;100268.81;7397388;19;20458;-60
2022/06/20 13:41:47;;;;;;;5.67;2.60;;;;;;;17.26;100.00;100366.81;7390105;19;20414;-61
2022/06/20 13:44:40;;;;;;;10.90;4.20;;;;;;;17.64;100.00;100367.97;7397230;19;20730;-61
2022/06/20 13:47:18;;;;;;;16.27;3.80;;;;;;;18.20;100.00;100358.72;7390008;19;20482;-61
2022/06/20 13:50:07;;;;;;;18.67;6.50;;;;;;;18.46;100.00;100438.91;7396814;19;20415;-61
2022/06/20 13:52:43;;;;;;;7.50;3.27;;;;;;;17.90;100.00;100445.53;7380591;19;20418;-61
2022/06/20 13:55:24;;;;;;;6.20;2.30;;;;;;;17.44;100.00;100439.13;7397698;19;20475;-60
2022/06/20 13:58:12;;;;;;;7.97;3.00;;;;;;;17.11;100.00;100378.88;7382004;19;20940;-60
2022/06/20 14:00:45;;;;;;;6.60;2.07;;;;;;;16.73;100.00;100288.19;7395593;19;20947;-60
2022/06/20 14:03:49;;;;;;;4.13;2.00;;;;;;;16.56;100.00;100186.50;7373053;19;20487;-61
2022/06/20 14:14:00;;;;;;;9.50;1.80;;;;;;;16.45;100.00;100113.50;7391843;19;20902;-60
2022/06/20 14:17:11;;;;;;;8.67;1.50;;;;;;;16.33;100.00;100133.38;7371189;19;20403;-60
2022/06/20 14:20:18;;;;;;;4.40;1.40;;;;;;;16.66;100.00;100179.63;7395740;19;20434;-61
2022/06/20 14:23:05;;;;;;;6.97;1.53;;;;;;;17.05;100.00;100232.91;7372773;19;20465;-60
2022/06/20 14:25:56;;;;;;;7.23;2.53;;;;;;;17.55;100.00;100293.16;7394567;19;20405;-61
2022/06/20 14:40:10;;;;;;;5.40;1.67;;;;;;;17.99;100.00;100296.81;7369514;19;20408;-60
2022/06/20 14:43:38;;;;;;;4.23;1.60;;;;;;;17.55;100.00;100282.72;7362917;19;21094;-60
2022/06/20 14:46:43;;;;;;;3.40;1.23;;;;;;;17.42;100.00;100284.38;7374473;19;20408;-60
2022/06/20 14:49:48;;;;;;;8.80;1.67;;;;;;;17.56;100.00;100341.84;7397009;19;20473;-60
2022/06/20 14:53:05;;;;;;;4.07;1.53;;;;;;;17.65;100.00;100403.63;7358525;19;20408;-61
2022/06/20 15:02:51;;;;;;;3.33;1.67;;;;;;;17.38;100.00;100470.38;7359364;19;20468;-61
2022/06/20 15:13:24;;;;;;;7.43;1.40;;;;;;;17.59;100.00;100343.59;7366703;19;20859;-61
2022/06/20 15:16:49;;;;;;;9.53;1.80;;;;;;;17.63;100.00;100361.88;7387233;19;20378;-63
2022/06/20 15:19:55;;;;;;;6.10;1.83;;;;;;;17.52;100.00;100366.16;7389331;19;20420;-60
2022/06/20 15:23:34;;;;;;;5.63;1.73;;;;;;;17.67;100.00;100368.88;7367464;19;20477;-61
2022/06/20 15:26:47;;;;;;;4.73;1.57;;;;;;;17.50;100.00;100332.25;7366257;19;20380;-61
2022/06/20 15:30:15;;;;;;;7.20;2.00;;;;;;;17.31;100.00;100326.03;7388887;19;20384;-61
2022/06/20 15:32:52;;;;;;;5.10;2.00;;;;;;;17.15;100.00;100285.94;7361542;19;20568;-61
2022/06/20 15:35:59;;;;;;;6.20;1.60;;;;;;;16.87;100.00;100273.53;7389353;19;20870;-61
2022/06/20 15:39:05;;;;;;;4.90;2.40;;;;;;;16.41;100.00;100158.59;7386592;19;21032;-61
2022/06/20 15:45:19;;;;;;;7.20;2.20;;;;;;;14.31;100.00;99856.69;7389419;19;20479;-61
2022/06/20 15:52:23;;;;;;;6.73;1.80;;;;;;;13.12;100.00;99888.63;7379067;19;20411;-61
2022/06/20 15:55:13;;;;;;;10.93;4.10;;;;;;;13.00;100.00;99907.41;7392288;19;20753;-61
2022/06/20 15:58:01;;;;;;;7.57;3.00;;;;;;;12.95;100.00;99891.78;7385290;19;20406;-61
2022/06/20 16:00:45;;;;;;;4.77;2.63;;;;;;;12.85;100.00;99901.09;7393237;19;20490;-61
2022/06/20 16:03:28;;;;;;;7.80;3.37;;;;;;;12.97;100.00;99905.63;7385321;19;20417;-61
2022/06/20 16:06:00;;;;;;;8.23;3.73;;;;;;;12.88;100.00;99900.28;7386210;19;20780;-61
2022/06/20 16:08:36;;;;;;;4.60;2.40;;;;;;;12.60;100.00;99904.94;7393463;19;20908;-60
2022/06/20 16:11:13;;;;;;;5.70;3.13;;;;;;;12.51;100.00;99896.13;7378097;19;20430;-61
2022/06/20 16:13:47;;;;;;;4.30;2.43;;;;;;;12.35;100.00;99905.31;7393189;19;20352;-61
2022/06/20 16:16:22;;;;;;;6.77;3.63;;;;;;;12.27;100.00;99936.16;7386636;19;20403;-61
2022/06/20 16:18:56;;;;;;;5.70;3.47;;;;;;;12.22;100.00;99953.31;7392535;19;20382;-61
2022/06/20 16:21:28;;;;;;;27.03;15.27;;;;;;;12.05;100.00;99972.75;7377534;19;20438;-61
2022/06/20 16:23:59;;;;;;;11.20;5.83;;;;;;;11.92;100.00;99976.72;7393021;19;20392;-61
2022/06/20 16:26:30;;;;;;;3.50;2.67;;;;;;;11.88;100.00;99981.81;7384003;19;20420;-61
2022/06/20 16:29:10;;;;;;;6.03;4.10;;;;;;;12.00;100.00;100014.84;7391454;19;20469;-61
2022/06/20 16:31:54;;;;;;;4.20;2.83;;;;;;;12.00;100.00;100092.41;7376998;19;21204;-60
2022/06/20 16:34:39;;;;;;;7.80;4.03;;;;;;;12.01;100.00;100121.72;7389425;19;20403;-60